createdAt,value
2022-11-29T00:01:17.340Z,9.57
2022-11-29T00:03:44.847Z,7.95
2022-11-29T00:06:14.982Z,10.20
2022-11-29T00:08:42.307Z,9.45
2022-11-29T00:11:14.264Z,11.15
2022-11-29T00:13:40.864Z,12.32
2022-11-29T00:16:14.704Z,9.98
2022-11-29T00:18:41.323Z,9.88
2022-11-29T00:21:08.605Z,13.98
2022-11-29T00:23:35.991Z,12.02
2022-11-29T00:26:07.298Z,11.52
2022-11-29T00:28:35.575Z,11.68
2022-11-29T00:31:23.207Z,11.98
2022-11-29T00:33:50.645Z,13.70
2022-11-29T00:36:17.907Z,11.18
2022-11-29T00:38:44.484Z,13.27
2022-11-29T00:41:11.477Z,10.68
2022-11-29T00:43:39.296Z,12.00
2022-11-29T00:46:06.443Z,10.82
2022-11-29T00:48:33.938Z,13.60
2022-11-29T00:51:01.362Z,12.05
2022-11-29T00:53:28.114Z,13.07
2022-11-29T00:55:54.719Z,13.82
2022-11-29T00:58:22.132Z,17.45
2022-11-29T01:00:49.035Z,13.07
2022-11-29T01:03:16.797Z,13.15
2022-11-29T01:05:43.851Z,10.65
2022-11-29T01:08:13.761Z,14.90
2022-11-29T01:10:41.531Z,13.52
2022-11-29T01:13:08.773Z,15.35
2022-11-29T01:15:36.290Z,13.18
2022-11-29T01:18:03.266Z,16.00
2022-11-29T01:20:29.849Z,12.82
2022-11-29T01:22:56.450Z,12.80
2022-11-29T01:25:23.046Z,17.92
2022-11-29T01:27:49.559Z,18.88
2022-11-29T01:30:16.167Z,14.57
2022-11-29T01:32:42.841Z,14.02
2022-11-29T01:35:09.467Z,13.35
2022-11-29T01:37:36.038Z,15.18
2022-11-29T01:40:02.780Z,16.75
2022-11-29T01:42:29.501Z,17.88
2022-11-29T01:45:06.735Z,12.50
2022-11-29T01:47:33.801Z,16.17
2022-11-29T01:50:02.406Z,15.27
2022-11-29T01:52:32.813Z,14.48
2022-11-29T01:55:03.864Z,18.45
2022-11-29T01:57:32.877Z,19.02
2022-11-29T02:00:06.537Z,15.23
2022-11-29T02:02:46.936Z,11.07
2022-11-29T02:05:16.920Z,17.42
2022-11-29T02:07:48.315Z,16.75
2022-11-29T02:10:16.382Z,18.05
2022-11-29T02:13:05.388Z,17.42
2022-11-29T02:15:50.615Z,15.50
2022-11-29T02:18:39.399Z,17.75
2022-11-29T02:21:19.691Z,12.75
2022-11-29T02:24:01.491Z,23.80
2022-11-29T02:26:59.211Z,14.77
2022-11-29T02:29:43.468Z,13.02
2022-11-29T02:32:37.943Z,15.45
2022-11-29T02:35:28.750Z,18.67
2022-11-29T02:38:32.963Z,11.95
2022-11-29T02:40:59.453Z,14.57
2022-11-29T02:43:44.785Z,11.65
2022-11-29T02:46:44.966Z,9.88
2022-11-29T02:49:23.736Z,11.00
2022-11-29T02:52:08.576Z,14.40
2022-11-29T02:54:53.537Z,15.23
2022-11-29T02:57:36.537Z,19.33
2022-11-29T03:00:11.383Z,14.82
2022-11-29T03:05:45.458Z,15.50
2022-11-29T03:08:33.956Z,16.08
2022-11-29T03:11:29.922Z,16.58
2022-11-29T03:14:11.754Z,20.95
2022-11-29T03:17:09.054Z,17.60
2022-11-29T03:19:50.792Z,15.18
2022-11-29T03:22:35.399Z,13.85
2022-11-29T03:25:22.426Z,18.10
2022-11-29T03:28:17.479Z,19.30
2022-11-29T03:31:15.687Z,14.68
2022-11-29T03:34:14.290Z,15.10
2022-11-29T03:36:47.955Z,11.43
2022-11-29T03:39:22.025Z,18.65
2022-11-29T03:41:55.320Z,16.92
2022-11-29T03:44:27.676Z,11.88
2022-11-29T03:47:17.111Z,16.85
2022-11-29T03:49:56.202Z,22.10
2022-11-29T03:53:04.710Z,12.93
2022-11-29T03:55:47.759Z,13.00
2022-11-29T03:58:43.964Z,18.08
2022-11-29T04:01:44.513Z,18.75
2022-11-29T04:04:30.322Z,13.45
2022-11-29T04:10:00.450Z,14.52
2022-11-29T04:13:00.730Z,20.30
2022-11-29T04:15:46.256Z,16.17
2022-11-29T04:18:31.527Z,18.85
2022-11-29T04:21:31.296Z,22.30
2022-11-29T04:24:14.740Z,20.60
2022-11-29T04:26:50.369Z,17.13
2022-11-29T04:29:55.127Z,24.52
2022-11-29T04:32:22.165Z,21.55
2022-11-29T04:35:15.387Z,22.15
2022-11-29T04:38:13.017Z,23.45
2022-11-29T04:41:02.197Z,18.42
2022-11-29T04:43:56.730Z,20.77
2022-11-29T04:46:31.517Z,15.85
2022-11-29T04:49:20.034Z,13.65
2022-11-29T04:52:19.573Z,21.80
2022-11-29T04:54:56.305Z,21.98
2022-11-29T04:57:46.126Z,18.02
2022-11-29T05:00:21.756Z,20.33
2022-11-29T05:02:55.643Z,13.50
2022-11-29T05:05:43.025Z,20.52
2022-11-29T05:08:46.687Z,21.02
2022-11-29T05:11:50.259Z,20.70
2022-11-29T05:14:24.062Z,15.32
2022-11-29T05:17:32.444Z,17.13
2022-11-29T05:20:22.830Z,23.23
2022-11-29T05:23:01.719Z,32.85
2022-11-29T05:26:07.214Z,17.13
2022-11-29T05:28:58.492Z,18.08
2022-11-29T05:31:56.411Z,16.92
2022-11-29T05:34:37.165Z,18.17
2022-11-29T05:37:42.624Z,26.42
2022-11-29T05:40:36.124Z,16.00
2022-11-29T05:43:08.824Z,18.67
2022-11-29T05:46:06.093Z,18.45
2022-11-29T05:48:57.543Z,12.00
2022-11-29T05:51:33.249Z,21.67
2022-11-29T05:54:21.737Z,13.27
2022-11-29T05:57:19.478Z,13.75
2022-11-29T05:59:49.676Z,17.67
2022-11-29T06:02:51.922Z,25.00
2022-11-29T06:05:24.288Z,12.98
2022-11-29T06:08:15.772Z,19.58
2022-11-29T06:10:57.141Z,11.85
2022-11-29T06:13:42.447Z,19.65
2022-11-29T06:16:35.517Z,11.95
2022-11-29T06:19:39.896Z,18.02
2022-11-29T06:22:38.296Z,14.50
2022-11-29T06:25:43.124Z,15.02
2022-11-29T06:28:28.653Z,17.52
2022-11-29T06:31:02.238Z,11.60
2022-11-29T06:33:36.353Z,24.30
2022-11-29T06:36:20.901Z,18.67
2022-11-29T06:38:47.679Z,15.77
2022-11-29T06:41:19.714Z,17.08
2022-11-29T06:43:47.164Z,25.35
2022-11-29T06:46:13.674Z,20.52
2022-11-29T06:48:49.379Z,24.38
2022-11-29T06:51:29.582Z,22.65
2022-11-29T06:54:14.451Z,23.58
2022-11-29T06:56:54.878Z,23.75
2022-11-29T06:59:56.633Z,19.95
2022-11-29T07:02:31.678Z,20.75
2022-11-29T07:05:19.686Z,22.87
2022-11-29T07:07:47.121Z,21.55
2022-11-29T07:10:18.844Z,22.83
2022-11-29T07:12:47.220Z,18.00
2022-11-29T07:15:19.877Z,22.42
2022-11-29T07:18:24.793Z,13.07
2022-11-29T07:21:32.599Z,15.52
2022-11-29T07:24:07.890Z,15.10
2022-11-29T07:29:40.673Z,18.65
2022-11-29T07:32:35.069Z,17.13
2022-11-29T07:35:12.891Z,18.95
2022-11-29T07:37:45.549Z,15.57
2022-11-29T07:40:37.211Z,15.13
2022-11-29T07:43:18.287Z,17.90
2022-11-29T07:45:45.749Z,17.27
2022-11-29T07:48:13.499Z,15.25
2022-11-29T07:50:40.984Z,18.23
2022-11-29T07:53:15.349Z,13.95
2022-11-29T07:55:42.229Z,25.30
2022-11-29T07:58:11.875Z,21.02
2022-11-29T08:00:39.546Z,18.90
2022-11-29T08:03:06.188Z,21.23
2022-11-29T08:05:32.711Z,17.88
2022-11-29T08:07:59.749Z,19.52
2022-11-29T08:10:26.913Z,22.23
2022-11-29T08:12:54.181Z,19.55
2022-11-29T08:15:22.946Z,28.85
2022-11-29T08:17:49.565Z,26.15
2022-11-29T08:20:17.054Z,31.70
2022-11-29T08:22:43.961Z,31.52
2022-11-29T08:25:11.164Z,22.48
2022-11-29T08:27:38.241Z,27.50
2022-11-29T08:30:06.345Z,26.00
2022-11-29T08:32:34.192Z,19.58
2022-11-29T08:35:00.749Z,29.55
2022-11-29T08:37:27.332Z,28.30
2022-11-29T08:39:55.065Z,36.38
2022-11-29T08:42:21.580Z,27.08
2022-11-29T08:44:48.216Z,21.67
2022-11-29T08:47:33.410Z,26.67
2022-11-29T08:50:02.952Z,29.88
2022-11-29T08:52:54.107Z,36.97
2022-11-29T08:55:23.435Z,23.35
2022-11-29T08:57:51.419Z,33.08
2022-11-29T09:00:19.009Z,29.02
2022-11-29T09:02:46.482Z,26.15
2022-11-29T09:05:13.218Z,24.48
2022-11-29T09:07:39.900Z,27.45
2022-11-29T09:10:08.311Z,24.98
2022-11-29T09:12:39.904Z,29.90
2022-11-29T09:15:09.433Z,31.60
2022-11-29T09:17:36.120Z,28.73
2022-11-29T09:20:04.275Z,26.67
2022-11-29T09:22:31.247Z,25.63
2022-11-29T09:24:57.848Z,34.95
2022-11-29T09:27:24.401Z,27.40
2022-11-29T09:29:50.960Z,27.15
2022-11-29T09:32:17.536Z,19.17
2022-11-29T09:34:44.577Z,33.15
2022-11-29T09:37:11.376Z,28.75
2022-11-29T09:39:38.199Z,24.88
2022-11-29T09:42:23.535Z,31.45
2022-11-29T09:44:56.133Z,30.23
2022-11-29T09:47:22.656Z,24.58
2022-11-29T09:49:58.931Z,27.17
2022-11-29T09:52:25.504Z,21.92
2022-11-29T09:54:57.076Z,21.08
2022-11-29T09:57:24.929Z,28.30
2022-11-29T09:59:56.148Z,26.58
2022-11-29T10:02:45.181Z,21.20
2022-11-29T10:05:26.038Z,26.75
2022-11-29T10:08:03.042Z,16.92
2022-11-29T10:10:40.652Z,25.52
2022-11-29T10:13:16.237Z,20.60
2022-11-29T10:15:50.222Z,23.63
2022-11-29T10:18:23.286Z,28.65
2022-11-29T10:20:52.911Z,21.75
2022-11-29T10:23:29.772Z,28.30
2022-11-29T10:25:58.362Z,35.75
2022-11-29T10:28:30.514Z,22.58
2022-11-29T10:31:03.004Z,25.27
2022-11-29T10:33:34.180Z,22.25
2022-11-29T10:36:09.765Z,38.08
2022-11-29T10:41:07.598Z,34.60
2022-11-29T10:43:37.303Z,29.65
2022-11-29T10:46:06.062Z,32.92
2022-11-29T10:48:34.167Z,21.20
2022-11-29T10:51:02.020Z,14.57
2022-11-29T10:53:36.522Z,21.88
2022-11-29T10:56:09.908Z,21.48
2022-11-29T10:58:52.954Z,30.75
2022-11-29T11:01:19.800Z,28.95
2022-11-29T11:03:55.328Z,31.80
2022-11-29T11:06:26.381Z,29.65
2022-11-29T11:09:11.948Z,22.25
2022-11-29T11:11:39.537Z,20.38
2022-11-29T11:14:20.439Z,23.05
2022-11-29T11:16:47.062Z,28.80
2022-11-29T11:19:34.105Z,19.83
2022-11-29T11:22:03.866Z,24.98
2022-11-29T11:24:33.763Z,22.90
2022-11-29T11:27:01.436Z,21.75
2022-11-29T11:29:36.439Z,22.92
2022-11-29T11:32:04.885Z,22.38
2022-11-29T11:34:38.498Z,33.10
2022-11-29T11:37:19.257Z,32.70
2022-11-29T11:39:48.289Z,25.25
2022-11-29T11:42:38.693Z,25.15
2022-11-29T11:45:11.411Z,30.48
2022-11-29T11:47:44.014Z,35.83
2022-11-29T11:50:17.446Z,33.70
2022-11-29T11:52:53.188Z,26.92
2022-11-29T11:55:34.320Z,30.13
2022-11-29T11:58:16.172Z,29.10
2022-11-29T12:03:35.771Z,36.70
2022-11-29T12:06:16.926Z,42.05
2022-11-29T12:08:46.711Z,36.65
2022-11-29T12:11:17.223Z,33.00
2022-11-29T12:13:59.148Z,30.92
2022-11-29T12:16:36.718Z,41.88
2022-11-29T12:21:40.326Z,37.00
2022-11-29T12:24:39.365Z,40.65
2022-11-29T12:27:10.945Z,33.97
2022-11-29T12:29:38.185Z,34.28
2022-11-29T12:32:20.886Z,38.45
2022-11-29T12:34:58.532Z,30.38
2022-11-29T12:37:48.325Z,30.50
2022-11-29T12:40:28.823Z,32.40
2022-11-29T12:43:14.251Z,22.58
2022-11-29T12:45:44.984Z,28.63
2022-11-29T12:48:39.039Z,24.45
2022-11-29T12:51:52.658Z,29.50
2022-11-29T12:54:43.772Z,23.90
2022-11-29T12:57:28.256Z,27.10
2022-11-29T12:59:57.850Z,31.77
2022-11-29T13:02:40.767Z,20.00
2022-11-29T13:05:33.563Z,29.00
2022-11-29T13:08:22.295Z,26.92
2022-11-29T13:10:58.338Z,35.42
2022-11-29T13:13:43.533Z,28.92
2022-11-29T13:16:33.164Z,32.20
2022-11-29T13:19:17.952Z,31.83
2022-11-29T13:22:08.009Z,24.20
2022-11-29T13:24:43.082Z,20.80
2022-11-29T13:27:26.213Z,34.60
2022-11-29T13:29:53.670Z,26.95
2022-11-29T13:32:45.133Z,27.30
2022-11-29T13:35:14.814Z,28.20
2022-11-29T13:38:09.973Z,23.10
2022-11-29T13:40:53.707Z,24.83
2022-11-29T13:43:41.372Z,28.67
2022-11-29T13:46:26.097Z,28.35
2022-11-29T13:48:54.721Z,21.20
2022-11-29T13:51:37.359Z,22.00
2022-11-29T13:54:29.833Z,23.63
2022-11-29T13:57:07.656Z,23.73
2022-11-29T13:59:37.178Z,22.85
2022-11-29T14:02:13.969Z,22.70
2022-11-29T14:04:45.927Z,26.02
2022-11-29T14:07:18.449Z,33.17
2022-11-29T14:09:50.818Z,23.98
2022-11-29T14:12:39.224Z,33.28
2022-11-29T14:15:19.399Z,25.40
2022-11-29T14:17:53.680Z,25.45
2022-11-29T14:20:23.255Z,24.98
2022-11-29T14:23:05.217Z,36.70
2022-11-29T14:28:18.324Z,32.90
2022-11-29T14:30:47.206Z,25.98
2022-11-29T14:33:37.966Z,30.15
2022-11-29T14:36:26.097Z,24.20
2022-11-29T14:39:24.294Z,30.65
2022-11-29T14:41:50.833Z,30.42
2022-11-29T14:44:20.403Z,24.77
2022-11-29T14:46:48.511Z,20.50
2022-11-29T14:49:23.639Z,23.88
2022-11-29T14:52:33.714Z,27.33
2022-11-29T14:55:06.233Z,20.35
2022-11-29T14:57:48.310Z,22.88
2022-11-29T15:00:37.961Z,17.58
2022-11-29T15:03:12.818Z,19.55
2022-11-29T15:05:45.647Z,24.83
2022-11-29T15:08:26.807Z,21.73
2022-11-29T15:10:58.563Z,28.92
2022-11-29T15:13:34.878Z,32.50
2022-11-29T15:16:14.941Z,29.20
2022-11-29T15:19:20.554Z,18.90
2022-11-29T15:22:18.002Z,25.17
2022-11-29T15:24:51.586Z,22.73
2022-11-29T15:27:18.572Z,30.13
2022-11-29T15:29:48.700Z,24.17
2022-11-29T15:32:20.641Z,22.98
2022-11-29T15:34:51.264Z,33.17
2022-11-29T15:37:39.154Z,26.23
2022-11-29T15:40:18.014Z,30.48
2022-11-29T15:43:11.951Z,20.80
2022-11-29T15:45:39.712Z,25.92
2022-11-29T15:48:20.487Z,25.67
2022-11-29T15:51:19.453Z,25.55
2022-11-29T15:54:12.115Z,30.33
2022-11-29T15:56:46.715Z,17.73
2022-11-29T15:59:19.772Z,28.67
2022-11-29T16:01:50.151Z,25.75
2022-11-29T16:04:20.881Z,19.15
2022-11-29T16:06:49.476Z,24.45
2022-11-29T16:09:25.020Z,31.10
2022-11-29T16:11:51.826Z,21.63
2022-11-29T16:14:25.371Z,23.10
2022-11-29T16:16:54.304Z,23.88
2022-11-29T16:19:35.531Z,21.98
2022-11-29T16:22:16.094Z,27.25
2022-11-29T16:24:53.697Z,19.65
2022-11-29T16:27:22.305Z,31.30
2022-11-29T16:29:50.941Z,27.20
2022-11-29T16:32:30.083Z,21.83
2022-11-29T16:35:05.137Z,24.67
2022-11-29T16:37:39.420Z,35.28
2022-11-29T16:40:07.297Z,20.30
2022-11-29T16:42:34.771Z,18.70
2022-11-29T16:45:34.053Z,26.27
2022-11-29T16:48:02.649Z,24.38
2022-11-29T16:50:31.226Z,27.10
2022-11-29T16:53:33.669Z,24.15
2022-11-29T16:56:00.271Z,20.88
2022-11-29T16:58:27.607Z,30.98
2022-11-29T17:00:54.233Z,19.92
2022-11-29T17:03:21.073Z,21.13
2022-11-29T17:05:47.581Z,25.80
2022-11-29T17:08:14.210Z,26.50
2022-11-29T17:10:40.956Z,31.85
2022-11-29T17:13:11.551Z,19.38
2022-11-29T17:15:38.413Z,19.85
2022-11-29T17:18:04.996Z,26.17
2022-11-29T17:20:31.857Z,23.92
2022-11-29T17:22:58.407Z,24.30
2022-11-29T17:25:25.186Z,24.75
2022-11-29T17:27:51.725Z,22.38
2022-11-29T17:30:18.286Z,23.52
2022-11-29T17:32:44.915Z,19.15
2022-11-29T17:35:11.504Z,18.38
2022-11-29T17:37:38.169Z,20.90
2022-11-29T17:40:05.481Z,23.50
2022-11-29T17:42:32.424Z,20.38
2022-11-29T17:44:59.031Z,24.30
2022-11-29T17:47:25.621Z,27.77
2022-11-29T17:49:52.121Z,25.73
2022-11-29T17:52:18.750Z,28.45
2022-11-29T17:54:45.247Z,40.28
2022-11-29T17:57:11.839Z,26.27
2022-11-29T17:59:38.326Z,26.27
2022-11-29T18:02:05.284Z,26.52
2022-11-29T18:04:31.998Z,25.00
2022-11-29T18:06:58.670Z,30.10
2022-11-29T18:09:25.364Z,27.13
2022-11-29T18:11:52.385Z,21.48
2022-11-29T18:14:23.603Z,26.08
2022-11-29T18:16:51.311Z,30.20
2022-11-29T18:19:20.220Z,22.23
2022-11-29T18:21:48.932Z,27.80
2022-11-29T18:24:15.693Z,35.13
2022-11-29T18:26:42.908Z,25.45
2022-11-29T18:29:10.004Z,35.03
2022-11-29T18:31:39.404Z,24.65
2022-11-29T18:34:09.357Z,22.65
2022-11-29T18:36:42.994Z,24.25
2022-11-29T18:39:15.222Z,34.38
2022-11-29T18:41:44.611Z,25.80
2022-11-29T18:44:13.923Z,26.00
2022-11-29T18:46:43.058Z,23.40
2022-11-29T18:49:11.896Z,27.23
2022-11-29T18:51:39.098Z,29.15
2022-11-29T18:54:06.713Z,25.52
2022-11-29T18:56:35.103Z,22.88
2022-11-29T18:59:08.407Z,27.35
2022-11-29T19:01:40.406Z,28.58
2022-11-29T19:04:09.131Z,26.65
2022-11-29T19:06:39.780Z,26.48
2022-11-29T19:09:11.904Z,24.98
2022-11-29T19:11:39.142Z,24.48
2022-11-29T19:14:14.048Z,28.77
2022-11-29T19:16:44.127Z,26.08
2022-11-29T19:19:11.280Z,24.05
2022-11-29T19:21:39.767Z,22.10
2022-11-29T19:24:13.369Z,26.98
2022-11-29T19:26:40.617Z,22.88
2022-11-29T19:29:07.221Z,19.65
2022-11-29T19:31:33.831Z,24.48
2022-11-29T19:34:00.395Z,29.25
2022-11-29T19:36:31.514Z,24.95
2022-11-29T19:39:00.959Z,22.20
2022-11-29T19:41:33.182Z,26.60
2022-11-29T19:44:02.502Z,29.77
2022-11-29T19:46:32.240Z,24.80
2022-11-29T19:49:00.042Z,29.05
2022-11-29T19:51:28.636Z,28.45
2022-11-29T19:53:57.323Z,25.17
2022-11-29T19:56:24.510Z,27.40
2022-11-29T19:58:51.600Z,31.90
2022-11-29T20:01:20.531Z,24.45
2022-11-29T20:03:48.474Z,32.38
2022-11-29T20:06:15.958Z,31.80
2022-11-29T20:08:43.181Z,27.92
2022-11-29T20:11:13.199Z,29.63
2022-11-29T20:13:42.607Z,27.50
2022-11-29T20:16:12.609Z,25.73
2022-11-29T20:18:45.843Z,35.13
2022-11-29T20:21:23.450Z,26.42
2022-11-29T20:24:01.419Z,27.45
2022-11-29T20:26:30.257Z,35.03
2022-11-29T20:28:57.032Z,32.38
2022-11-29T20:31:23.789Z,28.17
2022-11-29T20:33:52.687Z,35.22
2022-11-29T20:36:36.577Z,27.58
2022-11-29T20:39:52.448Z,33.47
2022-11-29T20:42:39.247Z,34.17
2022-11-29T20:45:08.684Z,28.80
2022-11-29T20:47:53.856Z,34.00
2022-11-29T20:50:26.202Z,33.83
2022-11-29T20:53:30.199Z,36.65
2022-11-29T20:55:57.381Z,39.05
2022-11-29T20:58:26.195Z,29.38
2022-11-29T21:00:54.395Z,31.75
2022-11-29T21:03:22.290Z,32.88
2022-11-29T21:05:49.549Z,31.02
2022-11-29T21:08:17.953Z,38.40
2022-11-29T21:10:45.530Z,36.25
2022-11-29T21:13:13.504Z,32.17
2022-11-29T21:15:41.492Z,36.95
2022-11-29T21:18:19.698Z,33.72
2022-11-29T21:21:08.274Z,26.98
2022-11-29T21:23:44.026Z,34.65
2022-11-29T21:26:20.484Z,35.83
2022-11-29T21:28:57.509Z,34.08
2022-11-29T21:31:24.592Z,30.55
2022-11-29T21:33:51.438Z,29.80
2022-11-29T21:36:18.917Z,30.55
2022-11-29T21:38:50.887Z,28.25
2022-11-29T21:41:20.646Z,32.83
2022-11-29T21:46:34.595Z,31.25
2022-11-29T21:49:01.414Z,34.30
2022-11-29T21:51:27.978Z,24.25
2022-11-29T21:53:54.525Z,32.70
2022-11-29T21:56:21.106Z,31.90
2022-11-29T21:58:47.684Z,40.33
2022-11-29T22:01:18.203Z,34.38
2022-11-29T22:03:45.863Z,39.45
2022-11-29T22:06:16.382Z,35.53
2022-11-29T22:08:43.725Z,33.47
2022-11-29T22:11:15.870Z,34.20
2022-11-29T22:14:02.824Z,33.28
2022-11-29T22:16:29.819Z,32.67
2022-11-29T22:18:56.576Z,30.35
2022-11-29T22:21:23.765Z,35.13
2022-11-29T22:23:52.238Z,30.02
2022-11-29T22:26:18.863Z,26.27
2022-11-29T22:28:45.530Z,25.08
2022-11-29T22:31:12.455Z,33.45
2022-11-29T22:33:39.852Z,34.65
2022-11-29T22:36:11.487Z,28.58
2022-11-29T22:38:39.046Z,29.20
2022-11-29T22:41:09.885Z,30.58
2022-11-29T22:43:37.837Z,32.00
2022-11-29T22:46:15.504Z,30.35
2022-11-29T22:48:43.884Z,30.85
2022-11-29T22:51:22.138Z,28.52
2022-11-29T22:53:53.914Z,27.77
2022-11-29T22:56:22.386Z,27.92
2022-11-29T22:58:49.295Z,32.35
2022-11-29T23:01:18.372Z,29.13
2022-11-29T23:03:48.316Z,28.75
2022-11-29T23:06:17.320Z,25.35
2022-11-29T23:08:45.689Z,35.13
2022-11-29T23:11:18.796Z,34.70
2022-11-29T23:13:46.046Z,31.73
2022-11-29T23:16:15.897Z,27.77
2022-11-29T23:18:42.997Z,31.33
2022-11-29T23:21:13.112Z,35.95
2022-11-29T23:23:40.298Z,35.75
2022-11-29T23:26:08.664Z,29.48
2022-11-29T23:28:35.943Z,31.30
2022-11-29T23:31:02.765Z,30.25
2022-11-29T23:33:29.679Z,35.35
2022-11-29T23:36:01.607Z,26.08
2022-11-29T23:38:29.228Z,37.20
2022-11-29T23:40:55.895Z,28.20
2022-11-29T23:43:22.872Z,26.60
2022-11-29T23:45:49.895Z,29.02
2022-11-29T23:48:16.574Z,31.90
2022-11-29T23:50:43.645Z,34.45
2022-11-29T23:53:13.272Z,32.40
2022-11-29T23:55:39.946Z,28.20
2022-11-29T23:58:06.790Z,31.60
